createdAt,value
2018-09-08T00:01:06.455Z,35.10
2018-09-08T00:03:33.997Z,32.53
2018-09-08T00:06:01.626Z,32.13
2018-09-08T00:08:29.160Z,40.33
2018-09-08T00:10:56.733Z,37.00
2018-09-08T00:13:24.298Z,32.47
2018-09-08T00:15:57.430Z,30.33
2018-09-08T00:18:30.654Z,35.57
2018-09-08T00:21:03.917Z,34.77
2018-09-08T00:23:37.250Z,35.03
2018-09-08T00:26:10.550Z,34.80
2018-09-08T00:28:53.067Z,32.87
2018-09-08T00:31:20.659Z,33.60
2018-09-08T00:33:48.671Z,31.20
2018-09-08T00:36:16.849Z,33.07
2018-09-08T00:38:44.399Z,35.60
2018-09-08T00:41:11.996Z,31.33
2018-09-08T00:43:39.608Z,31.53
2018-09-08T00:46:08.111Z,38.40
2018-09-08T00:48:35.899Z,31.63
2018-09-08T00:51:03.458Z,27.33
2018-09-08T00:53:31.021Z,30.53
2018-09-08T00:55:58.644Z,26.10
2018-09-08T00:58:26.265Z,29.83
2018-09-08T01:00:53.825Z,28.80
2018-09-08T01:03:21.400Z,29.03
2018-09-08T01:05:49.007Z,31.63
2018-09-08T01:08:16.554Z,36.93
2018-09-08T01:10:44.226Z,30.40
2018-09-08T01:13:11.770Z,33.43
2018-09-08T01:15:39.464Z,31.57
2018-09-08T01:18:07.130Z,32.03
2018-09-08T01:20:34.676Z,31.80
2018-09-08T01:23:02.235Z,31.03
2018-09-08T01:25:29.852Z,26.90
2018-09-08T01:27:57.412Z,32.40
2018-09-08T01:30:25.014Z,30.33
2018-09-08T01:32:52.532Z,28.10
2018-09-08T01:35:20.101Z,27.83
2018-09-08T01:37:47.637Z,28.27
2018-09-08T01:40:15.182Z,28.57
2018-09-08T01:42:42.886Z,35.80
2018-09-08T01:45:10.422Z,30.93
2018-09-08T01:47:37.984Z,31.60
2018-09-08T01:50:05.655Z,29.23
2018-09-08T01:52:33.208Z,31.00
2018-09-08T01:55:00.744Z,29.67
2018-09-08T01:57:28.301Z,27.23
2018-09-08T01:59:55.962Z,23.83
2018-09-08T02:02:23.652Z,27.40
2018-09-08T02:04:51.450Z,27.40
2018-09-08T02:07:19.000Z,25.97
2018-09-08T02:09:46.536Z,27.27
2018-09-08T02:12:14.139Z,30.90
2018-09-08T02:14:41.706Z,29.27
2018-09-08T02:17:09.372Z,34.97
2018-09-08T02:19:36.936Z,29.30
2018-09-08T02:22:04.540Z,34.50
2018-09-08T02:24:32.092Z,30.50
2018-09-08T02:26:59.682Z,26.37
2018-09-08T02:29:27.258Z,27.50
2018-09-08T02:31:54.804Z,26.93
2018-09-08T02:34:22.326Z,28.77
2018-09-08T02:36:49.867Z,27.80
2018-09-08T02:39:17.447Z,29.60
2018-09-08T02:41:45.029Z,23.90
2018-09-08T02:44:12.606Z,28.17
2018-09-08T02:46:40.211Z,30.93
2018-09-08T02:49:07.770Z,35.20
2018-09-08T02:51:34.245Z,28.57
2018-09-08T02:54:00.722Z,34.83
2018-09-08T02:56:27.208Z,29.50
2018-09-08T02:58:53.708Z,30.63
2018-09-08T03:01:20.173Z,28.33
2018-09-08T03:03:46.664Z,26.67
2018-09-08T03:06:13.158Z,35.70
2018-09-08T03:08:39.630Z,36.40
2018-09-08T03:11:06.104Z,30.97
2018-09-08T03:13:32.591Z,37.40
2018-09-08T03:15:59.062Z,27.10
2018-09-08T03:18:25.565Z,29.93
2018-09-08T03:20:52.037Z,27.43
2018-09-08T03:23:18.613Z,28.40
2018-09-08T03:25:45.097Z,29.40
2018-09-08T03:28:11.567Z,31.73
2018-09-08T03:30:38.072Z,30.83
2018-09-08T03:33:04.547Z,33.37
2018-09-08T03:35:31.012Z,27.10
2018-09-08T03:37:57.497Z,26.97
2018-09-08T03:40:23.965Z,27.90
2018-09-08T03:42:50.446Z,28.20
2018-09-08T03:45:16.892Z,29.37
2018-09-08T03:47:43.366Z,27.23
2018-09-08T03:50:09.848Z,28.47
2018-09-08T03:52:36.307Z,27.63
2018-09-08T03:55:02.783Z,30.77
2018-09-08T03:57:29.246Z,35.03
2018-09-08T03:59:55.734Z,28.30
2018-09-08T04:02:22.222Z,32.13
2018-09-08T04:04:49.770Z,32.53
2018-09-08T04:07:17.324Z,26.80
2018-09-08T04:09:44.881Z,24.47
2018-09-08T04:12:12.430Z,31.37
2018-09-08T04:14:39.949Z,22.10
2018-09-08T04:17:07.455Z,21.30
2018-09-08T04:19:35.046Z,25.20
2018-09-08T04:22:02.585Z,22.40
2018-09-08T04:24:30.192Z,26.27
2018-09-08T04:26:57.796Z,21.70
2018-09-08T04:29:25.434Z,23.00
2018-09-08T04:31:52.961Z,19.90
2018-09-08T04:34:20.536Z,21.83
2018-09-08T04:36:48.102Z,24.57
2018-09-08T04:39:15.695Z,22.50
2018-09-08T04:41:43.268Z,17.77
2018-09-08T04:44:10.821Z,21.90
2018-09-08T04:46:38.407Z,18.03
2018-09-08T04:49:05.971Z,32.33
2018-09-08T04:51:33.500Z,21.30
2018-09-08T04:54:01.040Z,23.47
2018-09-08T04:56:28.592Z,25.07
2018-09-08T04:58:56.095Z,28.10
2018-09-08T05:01:23.712Z,31.87
2018-09-08T05:03:51.286Z,33.93
2018-09-08T05:06:18.829Z,36.90
2018-09-08T05:08:46.351Z,27.03
2018-09-08T05:11:13.892Z,33.40
2018-09-08T05:13:41.417Z,28.13
2018-09-08T05:16:08.963Z,28.77
2018-09-08T05:18:36.523Z,22.70
2018-09-08T05:21:04.091Z,27.40
2018-09-08T05:23:31.629Z,29.77
2018-09-08T05:25:59.175Z,29.43
2018-09-08T05:28:26.686Z,27.93
2018-09-08T05:30:54.232Z,31.67
2018-09-08T05:33:21.789Z,28.93
2018-09-08T05:35:49.367Z,34.60
2018-09-08T05:38:16.877Z,35.30
2018-09-08T05:40:44.465Z,35.20
2018-09-08T05:43:12.036Z,37.23
2018-09-08T05:45:39.569Z,40.37
2018-09-08T05:48:07.207Z,42.50
2018-09-08T05:50:34.772Z,43.23
2018-09-08T05:53:02.352Z,40.23
2018-09-08T05:55:30.265Z,37.73
2018-09-08T05:57:57.821Z,36.47
2018-09-08T06:00:25.410Z,34.50
2018-09-08T06:02:52.968Z,34.33
2018-09-08T06:05:20.513Z,43.07
2018-09-08T06:07:48.177Z,26.23
2018-09-08T06:10:15.768Z,48.80
2018-09-08T06:12:43.348Z,39.07
2018-09-08T06:15:10.931Z,39.80
2018-09-08T06:17:38.519Z,35.50
2018-09-08T06:20:06.102Z,31.30
2018-09-08T06:22:33.666Z,35.23
2018-09-08T06:25:01.192Z,31.97
2018-09-08T06:27:28.724Z,33.97
2018-09-08T06:29:56.332Z,28.40
2018-09-08T06:32:23.891Z,34.17
2018-09-08T06:34:51.436Z,34.23
2018-09-08T06:37:18.979Z,33.43
2018-09-08T06:39:46.528Z,38.60
2018-09-08T06:42:14.156Z,32.40
2018-09-08T06:44:41.824Z,30.80
2018-09-08T06:47:09.408Z,28.27
2018-09-08T06:49:36.950Z,26.37
2018-09-08T06:52:04.658Z,22.17
2018-09-08T06:54:32.190Z,29.80
2018-09-08T06:56:59.728Z,25.30
2018-09-08T06:59:27.318Z,29.17
2018-09-08T07:01:54.839Z,29.07
2018-09-08T07:04:22.456Z,32.13
2018-09-08T07:06:49.952Z,34.27
2018-09-08T07:09:17.525Z,26.87
2018-09-08T07:11:45.358Z,30.27
2018-09-08T07:14:12.912Z,26.67
2018-09-08T07:16:40.454Z,23.30
2018-09-08T07:19:08.084Z,23.00
2018-09-08T07:21:35.618Z,29.73
2018-09-08T07:24:03.196Z,24.57
2018-09-08T07:26:30.765Z,25.27
2018-09-08T07:28:58.343Z,29.67
2018-09-08T07:31:25.873Z,26.63
2018-09-08T07:33:53.403Z,25.60
2018-09-08T07:36:20.980Z,27.87
2018-09-08T07:38:48.521Z,29.20
2018-09-08T07:41:16.080Z,18.10
2018-09-08T07:43:43.621Z,22.90
2018-09-08T07:46:11.230Z,21.90
2018-09-08T07:48:38.790Z,20.73
2018-09-08T07:51:06.509Z,22.70
2018-09-08T07:53:34.175Z,24.30
2018-09-08T07:56:01.993Z,26.10
2018-09-08T07:58:29.599Z,24.33
2018-09-08T08:00:57.205Z,21.43
2018-09-08T08:03:24.743Z,23.50
2018-09-08T08:05:52.324Z,20.40
2018-09-08T08:08:19.881Z,23.13
2018-09-08T08:10:47.471Z,21.90
2018-09-08T08:13:15.093Z,22.20
2018-09-08T08:15:42.693Z,19.70
2018-09-08T08:18:10.261Z,26.57
2018-09-08T08:20:37.843Z,22.43
2018-09-08T08:23:05.445Z,18.30
2018-09-08T08:25:33.041Z,19.67
2018-09-08T08:28:00.619Z,19.60
2018-09-08T08:30:28.145Z,27.93
2018-09-08T08:32:55.911Z,23.90
2018-09-08T08:35:23.480Z,13.60
2018-09-08T08:37:51.094Z,14.87
2018-09-08T08:40:18.652Z,14.00
2018-09-08T08:42:46.300Z,14.67
2018-09-08T08:45:13.882Z,13.40
2018-09-08T08:47:41.466Z,15.33
2018-09-08T08:50:20.415Z,15.20
2018-09-08T08:52:59.386Z,17.50
2018-09-08T08:55:26.994Z,13.30
2018-09-08T08:57:54.554Z,18.90
2018-09-08T09:00:22.136Z,18.50
2018-09-08T09:02:49.743Z,13.20
2018-09-08T09:05:17.366Z,23.87
2018-09-08T09:07:45.014Z,12.43
2018-09-08T09:10:12.599Z,12.27
2018-09-08T09:12:40.157Z,12.50
2018-09-08T09:15:08.189Z,14.83
2018-09-08T09:17:35.308Z,14.30
2018-09-08T09:21:11.886Z,16.03
2018-09-08T09:23:50.793Z,11.20
2018-09-08T09:26:18.366Z,11.87
2018-09-08T09:28:45.945Z,15.57
2018-09-08T09:31:13.525Z,16.17
2018-09-08T09:33:41.168Z,16.40
2018-09-08T09:36:08.769Z,11.73
2018-09-08T09:38:36.333Z,13.90
2018-09-08T09:41:03.901Z,11.80
2018-09-08T09:43:31.500Z,12.57
2018-09-08T09:45:59.056Z,11.47
2018-09-08T09:48:26.613Z,11.67
2018-09-08T09:50:54.241Z,9.43
2018-09-08T09:53:21.824Z,10.47
2018-09-08T09:55:49.382Z,12.03
2018-09-08T09:58:16.945Z,13.27
2018-09-08T10:00:50.245Z,13.10
2018-09-08T10:03:17.811Z,13.37
2018-09-08T10:05:45.422Z,9.20
2018-09-08T10:08:12.965Z,18.70
2018-09-08T10:10:40.529Z,14.50
2018-09-08T10:13:08.213Z,16.53
2018-09-08T10:15:35.777Z,14.13
2018-09-08T10:18:03.380Z,12.80
2018-09-08T10:20:30.955Z,15.90
2018-09-08T10:27:27.283Z,14.30
2018-09-08T10:29:54.885Z,11.63
2018-09-08T10:32:22.650Z,14.60
2018-09-08T10:34:50.250Z,14.13
2018-09-08T10:37:17.790Z,11.60
2018-09-08T10:39:45.383Z,10.20
2018-09-08T10:42:13.005Z,9.90
2018-09-08T10:44:40.600Z,9.60
2018-09-08T10:47:08.324Z,7.80
2018-09-08T10:49:35.944Z,10.67
2018-09-08T10:52:13.661Z,9.83
2018-09-08T10:54:41.265Z,10.87
2018-09-08T10:57:08.793Z,10.90
2018-09-08T10:59:36.380Z,8.80
2018-09-08T11:02:04.078Z,8.80
2018-09-08T11:04:31.509Z,8.20
2018-09-08T11:06:59.167Z,9.03
2018-09-08T11:09:26.735Z,7.63
2018-09-08T11:11:54.340Z,5.97
2018-09-08T11:14:21.915Z,8.60
2018-09-08T11:16:49.506Z,9.43
2018-09-08T11:19:17.087Z,8.40
2018-09-08T11:21:44.650Z,9.17
2018-09-08T11:24:12.418Z,11.00
2018-09-08T11:26:40.083Z,11.73
2018-09-08T11:29:07.728Z,9.13
2018-09-08T11:31:35.331Z,13.43
2018-09-08T11:34:02.957Z,10.70
2018-09-08T11:36:30.632Z,8.57
2018-09-08T11:38:58.941Z,9.20
2018-09-08T11:41:26.857Z,7.23
2018-09-08T11:43:54.561Z,6.30
2018-09-08T11:46:22.136Z,9.77
2018-09-08T11:48:49.714Z,10.20
2018-09-08T11:51:17.321Z,8.50
2018-09-08T11:53:44.925Z,7.40
2018-09-08T11:56:12.514Z,10.23
2018-09-08T11:58:40.105Z,10.17
2018-09-08T12:01:07.796Z,5.80
2018-09-08T12:03:35.348Z,13.40
2018-09-08T12:06:02.912Z,8.13
2018-09-08T12:08:31.612Z,6.57
2018-09-08T12:10:59.197Z,8.23
2018-09-08T12:13:26.774Z,8.23
2018-09-08T12:15:54.365Z,8.77
2018-09-08T12:18:21.925Z,8.03
2018-09-08T12:20:49.503Z,9.00
2018-09-08T12:23:17.079Z,11.70
2018-09-08T12:25:44.678Z,7.70
2018-09-08T12:28:12.254Z,9.27
2018-09-08T12:30:40.120Z,9.67
2018-09-08T12:33:07.685Z,8.70
2018-09-08T12:35:35.240Z,7.37
2018-09-08T12:38:02.852Z,7.60
2018-09-08T12:40:30.416Z,6.43
2018-09-08T12:42:57.991Z,9.00
2018-09-08T12:45:25.566Z,9.90
2018-09-08T12:47:53.179Z,7.57
2018-09-08T12:50:20.740Z,7.87
2018-09-08T12:52:48.317Z,9.13
2018-09-08T12:55:16.000Z,7.83
2018-09-08T12:57:43.595Z,8.93
2018-09-08T13:00:11.188Z,8.70
2018-09-08T13:02:38.783Z,6.77
2018-09-08T13:05:06.454Z,8.40
2018-09-08T13:07:34.058Z,7.50
2018-09-08T13:10:01.621Z,11.27
2018-09-08T13:12:29.195Z,6.10
2018-09-08T13:14:56.799Z,6.60
2018-09-08T13:17:24.365Z,12.23
2018-09-08T13:19:51.899Z,8.13
2018-09-08T13:22:19.458Z,9.23
2018-09-08T13:24:47.016Z,9.13
2018-09-08T13:27:14.548Z,7.87
2018-09-08T13:29:42.118Z,6.87
2018-09-08T13:32:09.669Z,10.37
2018-09-08T13:34:37.236Z,7.90
2018-09-08T13:37:04.814Z,8.93
2018-09-08T13:39:32.437Z,9.90
2018-09-08T13:41:59.942Z,9.20
2018-09-08T13:44:27.497Z,6.30
2018-09-08T13:46:55.107Z,13.17
2018-09-08T13:49:22.603Z,10.40
2018-09-08T13:51:50.311Z,9.97
2018-09-08T13:54:17.878Z,8.03
2018-09-08T13:56:45.439Z,9.90
2018-09-08T13:59:12.955Z,9.40
2018-09-08T14:01:40.552Z,9.57
2018-09-08T14:04:08.154Z,11.00
2018-09-08T14:06:35.690Z,8.23
2018-09-08T14:09:03.627Z,10.83
2018-09-08T14:11:31.207Z,7.97
2018-09-08T14:13:58.783Z,9.30
2018-09-08T14:16:26.341Z,7.13
2018-09-08T14:18:53.950Z,7.93
2018-09-08T14:21:21.506Z,7.70
2018-09-08T14:23:49.058Z,9.80
2018-09-08T14:26:16.633Z,7.33
2018-09-08T14:28:44.368Z,7.70
2018-09-08T14:31:11.845Z,8.30
2018-09-08T14:33:39.412Z,8.83
2018-09-08T14:36:06.999Z,5.27
2018-09-08T14:38:34.560Z,6.50
2018-09-08T14:41:02.093Z,9.70
2018-09-08T14:43:29.598Z,6.90
2018-09-08T14:45:57.157Z,8.97
2018-09-08T14:48:24.707Z,6.30
2018-09-08T14:50:52.254Z,9.00
2018-09-08T14:53:19.823Z,8.80
2018-09-08T14:55:47.407Z,5.57
2018-09-08T14:58:15.037Z,7.90
2018-09-08T15:00:42.594Z,7.13
2018-09-08T15:03:10.173Z,7.80
2018-09-08T15:05:37.738Z,9.17
2018-09-08T15:08:05.530Z,8.10
2018-09-08T15:10:33.095Z,9.20
2018-09-08T15:13:00.643Z,7.90
2018-09-08T15:15:28.221Z,5.13
2018-09-08T15:17:55.852Z,12.37
2018-09-08T15:20:23.474Z,5.27
2018-09-08T15:22:51.030Z,8.20
2018-09-08T15:25:18.606Z,6.60
2018-09-08T15:27:46.182Z,6.60
2018-09-08T15:30:13.717Z,4.80
2018-09-08T15:32:41.384Z,10.03
2018-09-08T15:35:08.905Z,8.30
2018-09-08T15:37:36.466Z,7.27
2018-09-08T15:40:04.205Z,7.50
2018-09-08T15:42:31.887Z,9.33
2018-09-08T15:44:59.447Z,7.60
2018-09-08T15:47:27.000Z,5.33
2018-09-08T15:49:54.576Z,8.17
2018-09-08T15:52:22.119Z,6.87
2018-09-08T15:54:49.690Z,6.53
2018-09-08T15:57:17.251Z,5.80
2018-09-08T15:59:44.851Z,11.10
2018-09-08T16:02:12.423Z,8.17
2018-09-08T16:04:39.992Z,10.70
2018-09-08T16:07:07.699Z,7.40
2018-09-08T16:09:35.269Z,8.83
2018-09-08T16:12:02.790Z,8.70
2018-09-08T16:14:30.488Z,10.83
2018-09-08T16:16:58.029Z,7.40
2018-09-08T16:19:25.637Z,4.93
2018-09-08T16:21:53.192Z,9.97
2018-09-08T16:24:20.780Z,6.10
2018-09-08T16:26:48.311Z,6.00
2018-09-08T16:29:15.932Z,5.97
2018-09-08T16:31:43.594Z,7.10
2018-09-08T16:34:11.208Z,4.60
2018-09-08T16:36:38.830Z,7.53
2018-09-08T16:39:08.580Z,5.50
2018-09-08T16:41:36.225Z,10.00
2018-09-08T16:44:03.880Z,5.70
2018-09-08T16:46:31.501Z,5.90
2018-09-08T16:48:59.075Z,5.97
2018-09-08T16:51:26.683Z,6.57
2018-09-08T16:53:54.286Z,5.50
2018-09-08T16:56:21.883Z,8.83
2018-09-08T16:58:49.464Z,5.57
2018-09-08T17:01:17.040Z,7.53
2018-09-08T17:03:44.844Z,6.50
2018-09-08T17:06:12.433Z,5.80
2018-09-08T17:08:40.054Z,5.60
2018-09-08T17:11:07.700Z,5.23
2018-09-08T17:13:35.401Z,14.00
2018-09-08T17:16:03.022Z,7.90
2018-09-08T17:18:30.682Z,5.93
2018-09-08T17:20:58.331Z,8.23
2018-09-08T17:23:25.932Z,7.70
2018-09-08T17:25:53.558Z,9.60
2018-09-08T17:28:21.314Z,6.77
2018-09-08T17:30:48.970Z,12.23
2018-09-08T17:33:16.559Z,11.33
2018-09-08T17:35:44.216Z,10.17
2018-09-08T17:38:11.817Z,10.80
2018-09-08T17:40:39.421Z,6.23
2018-09-08T17:43:07.018Z,10.33
2018-09-08T17:45:34.603Z,10.60
2018-09-08T17:48:02.206Z,9.63
2018-09-08T17:50:29.847Z,15.40
2018-09-08T17:52:57.422Z,8.50
2018-09-08T17:55:24.964Z,8.70
2018-09-08T17:57:52.543Z,7.83
2018-09-08T18:00:20.258Z,9.60
2018-09-08T18:02:47.867Z,6.47
2018-09-08T18:05:15.510Z,9.00
2018-09-08T18:07:43.172Z,9.10
2018-09-08T18:10:10.733Z,7.57
2018-09-08T18:12:38.436Z,7.60
2018-09-08T18:15:06.697Z,9.13
2018-09-08T18:17:34.302Z,8.10
2018-09-08T18:20:01.924Z,6.87
2018-09-08T18:22:29.597Z,7.33
2018-09-08T18:24:57.310Z,6.47
2018-09-08T18:27:25.129Z,8.07
2018-09-08T18:29:52.740Z,9.77
2018-09-08T18:32:20.366Z,9.73
2018-09-08T18:34:48.110Z,12.93
2018-09-08T18:37:15.812Z,8.80
2018-09-08T18:39:43.497Z,7.73
2018-09-08T18:42:11.213Z,9.43
2018-09-08T18:44:38.956Z,9.60
2018-09-08T18:47:06.803Z,9.17
2018-09-08T18:49:34.451Z,9.77
2018-09-08T18:52:02.104Z,9.73
2018-09-08T18:54:29.785Z,10.03
2018-09-08T18:56:57.397Z,8.80
2018-09-08T18:59:25.074Z,11.10
2018-09-08T19:01:53.101Z,11.80
2018-09-08T19:04:20.825Z,9.37
2018-09-08T19:06:48.570Z,11.40
2018-09-08T19:09:16.218Z,9.57
2018-09-08T19:11:45.772Z,18.73
2018-09-08T19:15:20.600Z,15.90
2018-09-08T19:17:48.228Z,11.57
2018-09-08T19:20:21.431Z,9.93
2018-09-08T19:22:49.788Z,13.37
2018-09-08T19:25:17.517Z,9.93
2018-09-08T19:27:46.104Z,12.83
2018-09-08T19:30:13.824Z,11.63
2018-09-08T19:32:41.513Z,10.63
2018-09-08T19:35:14.756Z,9.00
2018-09-08T19:37:42.455Z,8.97
2018-09-08T19:40:16.436Z,11.83
2018-09-08T19:42:44.179Z,12.43
2018-09-08T19:45:12.417Z,11.37
2018-09-08T19:47:46.556Z,9.40
2018-09-08T19:50:14.737Z,16.70
2018-09-08T19:52:48.058Z,10.50
2018-09-08T19:55:15.701Z,10.30
2018-09-08T19:57:49.005Z,10.43
2018-09-08T20:00:16.752Z,13.63
2018-09-08T20:02:44.469Z,9.13
2018-09-08T20:05:12.181Z,11.10
2018-09-08T20:07:40.561Z,10.80
2018-09-08T20:10:08.322Z,12.37
2018-09-08T20:12:36.066Z,10.97
2018-09-08T20:15:03.995Z,22.90
2018-09-08T20:17:32.694Z,12.10
2018-09-08T20:20:00.468Z,9.80
2018-09-08T20:22:28.293Z,11.67
2018-09-08T20:24:56.029Z,11.30
2018-09-08T20:27:23.705Z,10.90
2018-09-08T20:29:51.405Z,19.17
2018-09-08T20:32:19.664Z,12.10
2018-09-08T20:34:47.279Z,8.13
2018-09-08T20:37:15.127Z,14.20
2018-09-08T20:39:43.628Z,14.80
2018-09-08T20:42:11.361Z,9.73
2018-09-08T20:44:39.050Z,10.20
2018-09-08T20:47:06.807Z,13.33
2018-09-08T20:49:34.504Z,14.47
2018-09-08T20:52:02.575Z,15.70
2018-09-08T20:54:30.240Z,17.50
2018-09-08T20:56:57.948Z,17.00
2018-09-08T20:59:25.624Z,25.53
2018-09-08T21:01:53.303Z,11.23
2018-09-08T21:04:20.987Z,11.37
2018-09-08T21:06:48.908Z,11.90
2018-09-08T21:09:16.560Z,12.47
2018-09-08T21:11:44.234Z,10.00
2018-09-08T21:14:11.873Z,12.40
2018-09-08T21:16:39.590Z,13.20
2018-09-08T21:19:07.270Z,12.30
2018-09-08T21:21:35.157Z,13.10
2018-09-08T21:24:02.781Z,18.83
2018-09-08T21:26:30.379Z,13.30
2018-09-08T21:28:57.981Z,13.50
2018-09-08T21:31:25.662Z,14.67
2018-09-08T21:33:53.299Z,12.67
2018-09-08T21:36:20.869Z,16.90
2018-09-08T21:38:48.482Z,14.07
2018-09-08T21:41:16.148Z,17.37
2018-09-08T21:43:43.730Z,18.93
2018-09-08T21:46:11.343Z,16.63
2018-09-08T21:48:38.924Z,14.70
2018-09-08T21:51:06.533Z,15.90
2018-09-08T21:53:34.094Z,12.60
2018-09-08T21:56:01.715Z,11.47
2018-09-08T21:58:29.303Z,17.10
2018-09-08T22:01:01.440Z,15.47
2018-09-08T22:03:29.014Z,17.50
2018-09-08T22:05:56.687Z,11.73
2018-09-08T22:08:24.223Z,13.83
2018-09-08T22:10:51.881Z,14.47
2018-09-08T22:13:19.447Z,15.23
2018-09-08T22:15:47.043Z,14.60
2018-09-08T22:18:14.618Z,11.73
2018-09-08T22:20:42.183Z,15.07
2018-09-08T22:23:10.713Z,14.70
2018-09-08T22:25:38.287Z,11.57
2018-09-08T22:28:05.953Z,14.90
2018-09-08T22:30:33.575Z,14.90
2018-09-08T22:33:01.117Z,19.00
2018-09-08T22:35:28.716Z,13.97
2018-09-08T22:37:56.265Z,16.43
2018-09-08T22:40:23.853Z,13.80
2018-09-08T22:42:51.387Z,13.70
2018-09-08T22:45:18.943Z,15.40
2018-09-08T22:47:46.547Z,14.27
2018-09-08T22:50:14.209Z,14.47
2018-09-08T22:52:41.781Z,16.10
2018-09-08T22:55:09.343Z,16.10
2018-09-08T22:57:36.906Z,15.87
2018-09-08T23:00:04.590Z,16.10
2018-09-08T23:02:32.136Z,13.50
2018-09-08T23:04:59.700Z,18.10
2018-09-08T23:07:27.332Z,16.13
2018-09-08T23:09:54.887Z,19.87
2018-09-08T23:12:22.526Z,21.50
2018-09-08T23:14:50.102Z,16.40
2018-09-08T23:17:17.686Z,20.93
2018-09-08T23:19:45.236Z,16.17
2018-09-08T23:22:12.796Z,23.53
2018-09-08T23:24:40.392Z,18.07
2018-09-08T23:27:08.017Z,13.53
2018-09-08T23:29:35.538Z,19.73
2018-09-08T23:32:03.135Z,17.00
2018-09-08T23:34:30.694Z,13.93
2018-09-08T23:36:58.262Z,13.77
2018-09-08T23:39:25.814Z,15.37
2018-09-08T23:41:53.425Z,15.30
2018-09-08T23:44:20.957Z,17.47
2018-09-08T23:46:48.498Z,14.40
2018-09-08T23:49:16.036Z,22.27
2018-09-08T23:51:43.586Z,12.43
2018-09-08T23:54:11.137Z,16.93
2018-09-08T23:56:38.680Z,14.87
2018-09-08T23:59:06.310Z,15.27
